Tateno, Japan

2:39 AM JST on July 01, 2015 (GMT +0900)
Hyakuri Aero | | Change Station
CLOSE
Current Station
Airport
Location: Hyakuri AB,
Elevation: 115 ft
Nearby Weather Stations

Elev 115 ft 36.18 °N, 140.41 °E | Updated 39 minutes ago

Light Rain
Light Rain
68 °F
Feels Like 68 °F
N
4
Wind Variable Wind from SE

Today
High -- | Low -- °F
--% Chance of Precip.
Yesterday
High -- | Low -- °F
Precip. -- in
4:25 AM 7:00 PM
Waxing Gibbous, 98% visible
Pressure 29.50 in
Visibility 5.6 miles
Clouds Few 1000 ft
Scattered Clouds 5000 ft
Overcast 8000 ft
Dew Point 64 °F
Humidity 88%
Rainfall 0.00 in
Snow Depth Not available.
UV 0 out of 12
Pollen Not available.
Air Quality Not available.
Flu Activity Not available.
METAR RJAH 301700Z 13003KT 9000 -RA FEW010 SCT050 OVC080 20/18 Q0999

More Conditions Fewer Conditions

Pressure 29.50 in
Visibility 5.6 miles
Clouds Few 1000 ft
Scattered Clouds 5000 ft
Overcast 8000 ft
Dew Point 64 °F
Humidity 88%
Rainfall 0.00 in
Snow Depth Not available.
UV 0 out of 12
Pollen Not available.
Air Quality Not available.
Flu Activity Not available.
METAR RJAH 301700Z 13003KT 9000 -RA FEW010 SCT050 OVC080 20/18 Q0999

More Conditions Fewer Conditions

10-Day Weather Forecast

×

Almanac

Astronomy

Jul. 01, 2015 Rise Set
Actual Time
Civil Twilight
Nautical Twilight
Astronomical Twilight
Moon
Length of Visible Light
Length of Day
Tomorrow will be .
, % of the Moon is Illuminated

Today's Extremes

Country Highs Country Lows

Community

WunderPhotos

Upload Photos

1,834,050 photos uploaded!

WunderBlogs® & News

Nearby

Air Quality

  Air Quality AQ Index Pollutant
Not available.

Snow Depth

Station Depth Elevation

Earthquake Activity

City Distance Mag. Time & Date
Minimum magnitude displayed is 2.5.

Coastal Water Temperatures

Place Temperature

Stations

Nearby Weather Stations

Station Location Temp. Windchill Dew Point Humidity Wind Precip. Elev Updated Type